createdAt,value
2022-11-22T00:03:43.540Z,8.61
2022-11-22T00:08:46.141Z,8.55
2022-11-22T00:13:50.448Z,8.55
2022-11-22T00:18:52.963Z,8.56
2022-11-22T00:23:57.243Z,8.44
2022-11-22T00:29:01.541Z,8.30
2022-11-22T00:34:06.042Z,7.69
2022-11-22T00:39:09.357Z,8.32
2022-11-22T00:44:13.359Z,8.29
2022-11-22T00:49:15.902Z,8.29
2022-11-22T00:54:18.445Z,8.23
2022-11-22T00:59:22.356Z,8.32
2022-11-22T01:04:26.643Z,8.33
2022-11-22T01:09:29.526Z,7.76
2022-11-22T01:14:33.786Z,8.33
2022-11-22T01:19:36.343Z,8.32
2022-11-22T01:24:39.311Z,8.37
2022-11-22T01:29:43.197Z,8.36
2022-11-22T01:34:45.961Z,8.35
2022-11-22T01:39:48.680Z,8.38
2022-11-22T01:44:54.620Z,8.44
2022-11-22T01:50:01.359Z,8.46
2022-11-22T01:55:08.356Z,7.83
2022-11-22T02:05:43.464Z,7.69
2022-11-22T02:10:49.438Z,8.32
2022-11-22T02:15:53.430Z,8.41
2022-11-22T02:20:59.032Z,8.39
2022-11-22T02:26:04.212Z,8.31
2022-11-22T02:31:06.954Z,8.20
2022-11-22T02:36:12.814Z,8.16
2022-11-22T02:41:16.699Z,8.16
2022-11-22T02:46:22.561Z,8.10
2022-11-22T02:51:26.388Z,8.06
2022-11-22T02:56:30.723Z,8.00
2022-11-22T03:01:33.431Z,7.98
2022-11-22T03:06:36.186Z,7.76
2022-11-22T03:11:40.243Z,7.91
2022-11-22T03:16:42.962Z,7.86
2022-11-22T03:21:45.748Z,7.86
2022-11-22T03:26:50.703Z,7.73
2022-11-22T03:31:53.367Z,7.74
2022-11-22T03:36:56.039Z,7.71
2022-11-22T03:42:00.007Z,7.70
2022-11-22T03:47:02.582Z,7.70
2022-11-22T03:52:05.394Z,7.68
2022-11-22T03:57:09.424Z,7.70
2022-11-22T04:02:11.990Z,7.74
2022-11-22T04:07:15.072Z,7.76
2022-11-22T04:12:18.963Z,7.73
2022-11-22T04:17:35.908Z,7.73
2022-11-22T04:22:38.632Z,7.77
2022-11-22T04:27:42.663Z,7.73
2022-11-22T04:32:47.912Z,7.68
2022-11-22T04:37:51.060Z,7.49
2022-11-22T04:43:12.364Z,7.56
2022-11-22T04:48:15.221Z,7.54
2022-11-22T04:53:19.380Z,7.50
2022-11-22T04:58:24.370Z,7.47
2022-11-22T05:03:26.910Z,7.44
2022-11-22T05:08:29.692Z,7.40
2022-11-22T05:13:36.117Z,7.33
2022-11-22T05:18:39.195Z,7.30
2022-11-22T05:23:57.455Z,7.23
2022-11-22T05:29:06.040Z,7.25
2022-11-22T05:34:08.687Z,7.22
2022-11-22T05:39:11.347Z,7.02
2022-11-22T05:44:15.209Z,7.19
2022-11-22T05:49:17.770Z,7.20
2022-11-22T05:54:20.468Z,7.19
2022-11-22T05:59:24.491Z,7.18
2022-11-22T06:04:27.020Z,7.18
2022-11-22T06:09:29.797Z,7.19
2022-11-22T06:14:41.562Z,7.00
2022-11-22T06:19:45.849Z,7.22
2022-11-22T06:24:48.470Z,7.24
2022-11-22T06:29:52.504Z,7.25
2022-11-22T06:34:55.046Z,7.24
2022-11-22T06:39:57.606Z,7.26
2022-11-22T06:45:01.655Z,7.26
2022-11-22T06:50:04.606Z,7.31
2022-11-22T06:55:08.369Z,7.25
2022-11-22T07:00:14.622Z,7.24
2022-11-22T07:05:25.569Z,7.27
2022-11-22T07:10:29.216Z,7.25
2022-11-22T07:15:33.111Z,7.23
2022-11-22T07:20:35.776Z,7.29
2022-11-22T07:25:38.907Z,7.29
2022-11-22T07:30:44.309Z,7.28
2022-11-22T07:35:47.191Z,7.30
2022-11-22T07:40:50.068Z,7.29
2022-11-22T07:45:54.432Z,7.24
2022-11-22T07:50:57.041Z,7.25
2022-11-22T07:56:02.134Z,7.32
2022-11-22T08:01:10.755Z,7.38
2022-11-22T08:06:14.543Z,7.40
2022-11-22T08:11:17.073Z,7.40
2022-11-22T08:16:20.972Z,7.46
2022-11-22T08:21:23.523Z,7.54
2022-11-22T08:26:26.066Z,7.62
2022-11-22T08:31:30.281Z,7.68
2022-11-22T08:36:33.753Z,7.73
2022-11-22T08:41:36.319Z,7.82
2022-11-22T08:46:40.331Z,7.83
2022-11-22T08:51:44.854Z,7.97
2022-11-22T08:56:47.387Z,8.06
2022-11-22T09:01:51.375Z,8.13
2022-11-22T09:12:16.802Z,8.20
2022-11-22T09:17:20.707Z,8.28
2022-11-22T09:22:28.304Z,8.09
2022-11-22T09:27:31.183Z,8.37
2022-11-22T09:32:35.070Z,8.50
2022-11-22T09:37:37.666Z,8.53
2022-11-22T09:42:56.452Z,8.58
2022-11-22T09:48:10.071Z,8.66
2022-11-22T09:53:19.197Z,8.93
2022-11-22T09:58:30.839Z,9.03
2022-11-22T10:03:49.075Z,8.99
2022-11-22T10:09:09.400Z,9.05
2022-11-22T10:14:23.472Z,8.97
2022-11-22T10:19:35.733Z,8.96
2022-11-22T10:24:38.322Z,8.99
2022-11-22T10:29:47.669Z,9.10
2022-11-22T10:35:10.741Z,9.09
2022-11-22T10:40:21.597Z,9.19
2022-11-22T10:45:30.365Z,9.25
2022-11-22T10:50:48.590Z,9.25
2022-11-22T10:55:58.290Z,9.27
2022-11-22T11:01:06.927Z,9.24
2022-11-22T11:06:29.632Z,9.33
2022-11-22T11:11:42.968Z,9.37
2022-11-22T11:16:46.108Z,9.40
2022-11-22T11:21:58.183Z,9.37
2022-11-22T11:27:01.503Z,9.39
2022-11-22T11:32:09.621Z,9.40
2022-11-22T11:37:25.046Z,9.44
2022-11-22T11:42:30.205Z,9.59
2022-11-22T11:47:34.419Z,9.69
2022-11-22T11:52:38.502Z,9.75
2022-11-22T11:57:45.166Z,9.76
2022-11-22T12:02:50.573Z,9.76
2022-11-22T12:07:54.651Z,9.76
2022-11-22T12:13:04.400Z,9.80
2022-11-22T12:18:23.817Z,9.80
2022-11-22T12:23:37.168Z,9.80
2022-11-22T12:28:40.244Z,9.84
2022-11-22T12:33:44.702Z,9.93
2022-11-22T12:38:51.366Z,10.02
2022-11-22T12:43:56.443Z,10.07
2022-11-22T12:49:03.614Z,10.04
2022-11-22T12:54:15.199Z,9.94
2022-11-22T12:59:29.005Z,9.94
2022-11-22T13:04:42.089Z,10.16
2022-11-22T13:09:52.270Z,10.07
2022-11-22T13:14:56.520Z,9.98
2022-11-22T13:20:04.165Z,10.00
2022-11-22T13:25:37.201Z,9.97
2022-11-22T13:30:40.429Z,9.97
2022-11-22T13:35:43.215Z,9.96
2022-11-22T13:40:50.427Z,9.33
2022-11-22T13:45:54.816Z,9.74
2022-11-22T13:51:01.652Z,9.84
2022-11-22T13:56:43.857Z,9.79
2022-11-22T14:01:59.990Z,9.56
2022-11-22T14:07:06.618Z,9.80
2022-11-22T14:12:39.558Z,9.78
2022-11-22T14:17:51.422Z,9.77
2022-11-22T14:22:59.772Z,9.76
2022-11-22T14:28:15.159Z,9.75
2022-11-22T14:33:21.397Z,9.75
2022-11-22T14:38:33.545Z,9.74
2022-11-22T14:43:38.711Z,9.62
2022-11-22T14:48:50.878Z,9.74
2022-11-22T14:53:56.472Z,9.76
2022-11-22T14:59:07.990Z,9.68
2022-11-22T15:09:11.239Z,9.65
2022-11-22T15:10:49.874Z,9.68
2022-11-22T15:59:48.446Z,9.42
2022-11-22T16:06:07.200Z,9.45
2022-11-22T16:10:22.391Z,9.45
2022-11-22T16:15:29.329Z,9.39
2022-11-22T16:20:34.028Z,9.37
2022-11-22T16:25:40.567Z,9.22
2022-11-22T16:30:43.700Z,8.60
2022-11-22T16:35:46.517Z,8.99
2022-11-22T16:40:51.365Z,8.89
2022-11-22T16:45:54.034Z,8.81
2022-11-22T16:50:59.322Z,8.93
2022-11-22T16:56:03.182Z,8.86
2022-11-22T17:01:06.133Z,8.86
2022-11-22T17:06:16.104Z,8.89
2022-11-22T17:11:21.218Z,8.84
2022-11-22T17:16:24.439Z,8.82
2022-11-22T17:21:31.519Z,8.77
2022-11-22T17:26:42.730Z,8.81
2022-11-22T17:31:48.984Z,8.89
2022-11-22T17:36:51.526Z,8.83
2022-11-22T17:41:58.836Z,8.89
2022-11-22T17:47:01.540Z,8.82
2022-11-22T17:52:04.654Z,8.07
2022-11-22T17:57:09.612Z,8.88
2022-11-22T18:02:12.836Z,8.95
2022-11-22T18:07:15.510Z,8.87
2022-11-22T18:12:20.017Z,8.86
2022-11-22T18:17:22.871Z,9.24
2022-11-22T18:22:25.755Z,8.84
2022-11-22T18:27:29.934Z,8.99
2022-11-22T18:32:32.597Z,8.98
2022-11-22T18:37:35.265Z,8.99
2022-11-22T18:42:40.528Z,8.89
2022-11-22T18:47:44.527Z,9.04
2022-11-22T18:52:47.255Z,8.88
2022-11-22T18:57:52.054Z,8.99
2022-11-22T19:02:54.730Z,9.04
2022-11-22T19:07:57.456Z,9.05
2022-11-22T19:13:01.507Z,9.08
2022-11-22T19:18:04.804Z,9.00
2022-11-22T19:23:08.059Z,9.03
2022-11-22T19:28:12.037Z,8.99
2022-11-22T19:33:16.650Z,8.95
2022-11-22T19:38:19.668Z,9.06
2022-11-22T19:43:23.868Z,8.93
2022-11-22T19:48:26.542Z,8.97
2022-11-22T19:53:29.099Z,8.88
2022-11-22T19:58:33.619Z,8.58
2022-11-22T20:03:37.681Z,8.93
2022-11-22T20:08:41.396Z,8.87
2022-11-22T20:13:47.572Z,8.93
2022-11-22T20:18:54.280Z,8.84
2022-11-22T20:23:57.006Z,9.08
2022-11-22T20:29:03.466Z,8.89
2022-11-22T20:34:06.168Z,9.11
2022-11-22T20:39:10.802Z,8.96
2022-11-22T20:44:15.301Z,9.11
2022-11-22T20:49:17.983Z,9.19
2022-11-22T20:54:20.851Z,8.86
2022-11-22T20:59:24.741Z,9.20
2022-11-22T21:04:27.401Z,9.20
2022-11-22T21:09:30.379Z,9.20
2022-11-22T21:14:34.429Z,9.15
2022-11-22T21:19:38.520Z,8.55
2022-11-22T21:24:45.784Z,9.21
2022-11-22T21:29:51.610Z,9.16
2022-11-22T21:34:54.580Z,9.27
2022-11-22T21:39:57.195Z,9.28
2022-11-22T21:45:01.244Z,9.25
2022-11-22T21:50:10.062Z,9.34
2022-11-22T21:55:15.324Z,9.41
2022-11-22T22:00:19.853Z,9.41
2022-11-22T22:05:22.712Z,9.27
2022-11-22T22:10:25.244Z,9.39
2022-11-22T22:15:29.287Z,9.39
2022-11-22T22:20:31.851Z,9.35
2022-11-22T22:25:34.543Z,9.91
2022-11-22T22:30:38.440Z,9.66
2022-11-22T22:35:41.290Z,9.62
2022-11-22T22:40:43.807Z,9.54
2022-11-22T22:45:47.774Z,9.51
2022-11-22T22:50:50.309Z,9.38
2022-11-22T22:55:56.068Z,9.32
2022-11-22T23:01:06.882Z,9.34
2022-11-22T23:06:11.917Z,9.37
2022-11-22T23:11:15.763Z,9.36
2022-11-22T23:16:19.636Z,9.36
2022-11-22T23:21:22.147Z,9.44
2022-11-22T23:26:24.695Z,9.32
2022-11-22T23:31:28.945Z,9.39
2022-11-22T23:36:35.964Z,9.40
2022-11-22T23:41:40.073Z,9.44
2022-11-22T23:46:43.943Z,9.41
2022-11-22T23:51:47.444Z,9.44
2022-11-22T23:56:50.058Z,9.47
